sensor_id;sensor_type;location;lat;lon;timestamp;P1;durP1;ratioP1;P2;durP2;ratioP2
64875;SDS011;51369;49.862;9.908;2023-03-01T00:02:19;29.58;;;13.82;;
64875;SDS011;51369;49.862;9.908;2023-03-01T00:04:44;29.40;;;13.93;;
64875;SDS011;51369;49.862;9.908;2023-03-01T00:07:11;25.58;;;12.48;;
64875;SDS011;51369;49.862;9.908;2023-03-01T00:09:36;30.85;;;14.02;;
64875;SDS011;51369;49.862;9.908;2023-03-01T00:12:02;23.75;;;12.73;;
64875;SDS011;51369;49.862;9.908;2023-03-01T00:14:28;23.45;;;12.82;;
64875;SDS011;51369;49.862;9.908;2023-03-01T00:16:54;27.48;;;13.88;;
64875;SDS011;51369;49.862;9.908;2023-03-01T00:19:19;26.63;;;14.13;;
64875;SDS011;51369;49.862;9.908;2023-03-01T00:21:47;26.88;;;13.80;;
64875;SDS011;51369;49.862;9.908;2023-03-01T00:24:13;26.08;;;14.13;;
64875;SDS011;51369;49.862;9.908;2023-03-01T00:26:39;26.73;;;13.27;;
64875;SDS011;51369;49.862;9.908;2023-03-01T00:29:05;28.17;;;14.30;;
64875;SDS011;51369;49.862;9.908;2023-03-01T00:31:31;29.05;;;14.18;;
64875;SDS011;51369;49.862;9.908;2023-03-01T00:33:59;26.05;;;13.63;;
64875;SDS011;51369;49.862;9.908;2023-03-01T00:36:27;28.23;;;14.32;;
64875;SDS011;51369;49.862;9.908;2023-03-01T00:38:55;25.35;;;13.05;;
64875;SDS011;51369;49.862;9.908;2023-03-01T00:41:21;26.30;;;13.60;;
64875;SDS011;51369;49.862;9.908;2023-03-01T00:43:48;23.52;;;12.82;;
64875;SDS011;51369;49.862;9.908;2023-03-01T00:46:15;30.38;;;13.85;;
64875;SDS011;51369;49.862;9.908;2023-03-01T00:48:42;26.83;;;13.68;;
64875;SDS011;51369;49.862;9.908;2023-03-01T00:51:16;26.60;;;14.23;;
64875;SDS011;51369;49.862;9.908;2023-03-01T00:53:44;23.60;;;13.25;;
64875;SDS011;51369;49.862;9.908;2023-03-01T00:56:10;26.15;;;13.73;;
64875;SDS011;51369;49.862;9.908;2023-03-01T00:58:37;28.60;;;13.75;;
64875;SDS011;51369;49.862;9.908;2023-03-01T01:01:07;27.45;;;14.45;;
64875;SDS011;51369;49.862;9.908;2023-03-01T01:03:46;31.77;;;13.57;;
64875;SDS011;51369;49.862;9.908;2023-03-01T01:06:15;25.17;;;13.73;;
64875;SDS011;51369;49.862;9.908;2023-03-01T01:08:42;24.92;;;13.05;;
64875;SDS011;51369;49.862;9.908;2023-03-01T01:11:08;26.30;;;13.77;;
64875;SDS011;51369;49.862;9.908;2023-03-01T01:13:35;27.77;;;14.07;;
64875;SDS011;51369;49.862;9.908;2023-03-01T01:16:01;27.70;;;14.15;;
64875;SDS011;51369;49.862;9.908;2023-03-01T01:18:27;30.65;;;13.80;;
64875;SDS011;51369;49.862;9.908;2023-03-01T01:20:53;28.95;;;14.50;;
64875;SDS011;51369;49.862;9.908;2023-03-01T01:23:18;27.98;;;14.32;;
64875;SDS011;51369;49.862;9.908;2023-03-01T01:25:45;27.25;;;13.05;;
64875;SDS011;51369;49.862;9.908;2023-03-01T01:28:10;32.20;;;14.05;;
64875;SDS011;51369;49.862;9.908;2023-03-01T01:30:36;32.80;;;14.52;;
64875;SDS011;51369;49.862;9.908;2023-03-01T01:33:02;29.52;;;14.77;;
64875;SDS011;51369;49.862;9.908;2023-03-01T01:35:27;28.95;;;14.15;;
64875;SDS011;51369;49.862;9.908;2023-03-01T01:37:53;32.15;;;14.93;;
64875;SDS011;51369;49.862;9.908;2023-03-01T01:40:18;25.85;;;14.18;;
64875;SDS011;51369;49.862;9.908;2023-03-01T01:42:44;25.65;;;14.07;;
64875;SDS011;51369;49.862;9.908;2023-03-01T01:45:29;26.88;;;13.88;;
64875;SDS011;51369;49.862;9.908;2023-03-01T01:47:56;31.13;;;15.70;;
64875;SDS011;51369;49.862;9.908;2023-03-01T01:50:25;29.02;;;13.50;;
64875;SDS011;51369;49.862;9.908;2023-03-01T01:52:51;28.98;;;14.40;;
64875;SDS011;51369;49.862;9.908;2023-03-01T01:55:19;28.02;;;13.85;;
64875;SDS011;51369;49.862;9.908;2023-03-01T01:57:49;28.77;;;14.15;;
64875;SDS011;51369;49.862;9.908;2023-03-01T02:00:19;30.77;;;14.80;;
64875;SDS011;51369;49.862;9.908;2023-03-01T02:02:47;30.40;;;14.68;;
64875;SDS011;51369;49.862;9.908;2023-03-01T02:05:19;31.58;;;14.57;;
64875;SDS011;51369;49.862;9.908;2023-03-01T02:08:02;24.65;;;13.73;;
64875;SDS011;51369;49.862;9.908;2023-03-01T02:10:28;30.17;;;15.13;;
64875;SDS011;51369;49.862;9.908;2023-03-01T02:12:58;33.90;;;16.10;;
64875;SDS011;51369;49.862;9.908;2023-03-01T02:15:25;28.23;;;14.40;;
64875;SDS011;51369;49.862;9.908;2023-03-01T02:17:52;24.77;;;13.50;;
64875;SDS011;51369;49.862;9.908;2023-03-01T02:23:00;26.00;;;14.05;;
64875;SDS011;51369;49.862;9.908;2023-03-01T02:30:44;30.92;;;15.23;;
64875;SDS011;51369;49.862;9.908;2023-03-01T02:33:31;28.15;;;13.30;;
64875;SDS011;51369;49.862;9.908;2023-03-01T02:36:05;25.50;;;14.32;;
64875;SDS011;51369;49.862;9.908;2023-03-01T02:38:33;28.58;;;14.63;;
64875;SDS011;51369;49.862;9.908;2023-03-01T02:40:58;27.58;;;13.48;;
64875;SDS011;51369;49.862;9.908;2023-03-01T02:43:27;27.98;;;14.48;;
64875;SDS011;51369;49.862;9.908;2023-03-01T02:46:02;33.17;;;14.38;;
64875;SDS011;51369;49.862;9.908;2023-03-01T02:48:39;29.90;;;14.00;;
64875;SDS011;51369;49.862;9.908;2023-03-01T02:51:19;30.58;;;14.05;;
64875;SDS011;51369;49.862;9.908;2023-03-01T02:56:31;25.42;;;13.13;;
64875;SDS011;51369;49.862;9.908;2023-03-01T02:58:57;25.60;;;13.70;;
64875;SDS011;51369;49.862;9.908;2023-03-01T03:01:26;30.67;;;16.25;;
64875;SDS011;51369;49.862;9.908;2023-03-01T03:04:10;29.77;;;14.98;;
64875;SDS011;51369;49.862;9.908;2023-03-01T03:06:37;28.92;;;15.10;;
64875;SDS011;51369;49.862;9.908;2023-03-01T03:09:03;27.48;;;14.40;;
64875;SDS011;51369;49.862;9.908;2023-03-01T03:11:29;25.60;;;13.60;;
64875;SDS011;51369;49.862;9.908;2023-03-01T03:13:55;34.83;;;15.43;;
64875;SDS011;51369;49.862;9.908;2023-03-01T03:16:21;27.83;;;14.52;;
64875;SDS011;51369;49.862;9.908;2023-03-01T03:18:47;34.85;;;15.77;;
64875;SDS011;51369;49.862;9.908;2023-03-01T03:21:13;32.78;;;16.27;;
64875;SDS011;51369;49.862;9.908;2023-03-01T03:23:40;32.20;;;14.93;;
64875;SDS011;51369;49.862;9.908;2023-03-01T03:26:05;36.35;;;16.02;;
64875;SDS011;51369;49.862;9.908;2023-03-01T03:28:31;26.33;;;13.80;;
64875;SDS011;51369;49.862;9.908;2023-03-01T03:30:58;29.55;;;13.68;;
64875;SDS011;51369;49.862;9.908;2023-03-01T03:33:28;31.05;;;14.57;;
64875;SDS011;51369;49.862;9.908;2023-03-01T03:35:56;27.88;;;13.73;;
64875;SDS011;51369;49.862;9.908;2023-03-01T03:38:22;32.28;;;14.80;;
64875;SDS011;51369;49.862;9.908;2023-03-01T03:41:21;29.95;;;14.73;;
64875;SDS011;51369;49.862;9.908;2023-03-01T03:43:40;31.40;;;14.70;;
64875;SDS011;51369;49.862;9.908;2023-03-01T03:46:08;29.67;;;14.35;;
64875;SDS011;51369;49.862;9.908;2023-03-01T03:48:39;29.60;;;13.98;;
64875;SDS011;51369;49.862;9.908;2023-03-01T03:51:08;30.30;;;13.95;;
64875;SDS011;51369;49.862;9.908;2023-03-01T03:53:35;28.48;;;14.65;;
64875;SDS011;51369;49.862;9.908;2023-03-01T03:56:01;25.92;;;14.25;;
64875;SDS011;51369;49.862;9.908;2023-03-01T03:58:26;26.67;;;14.20;;
64875;SDS011;51369;49.862;9.908;2023-03-01T04:00:54;26.52;;;13.40;;
64875;SDS011;51369;49.862;9.908;2023-03-01T04:03:21;29.98;;;14.90;;
64875;SDS011;51369;49.862;9.908;2023-03-01T04:05:47;26.77;;;13.93;;
64875;SDS011;51369;49.862;9.908;2023-03-01T04:08:15;28.77;;;14.07;;
64875;SDS011;51369;49.862;9.908;2023-03-01T04:10:43;28.20;;;14.52;;
64875;SDS011;51369;49.862;9.908;2023-03-01T04:13:10;30.65;;;14.23;;
64875;SDS011;51369;49.862;9.908;2023-03-01T04:15:37;25.10;;;13.60;;
64875;SDS011;51369;49.862;9.908;2023-03-01T04:18:03;34.45;;;15.48;;
64875;SDS011;51369;49.862;9.908;2023-03-01T04:20:32;26.02;;;12.85;;
64875;SDS011;51369;49.862;9.908;2023-03-01T04:25:41;29.63;;;13.73;;
64875;SDS011;51369;49.862;9.908;2023-03-01T04:30:49;26.15;;;14.00;;
64875;SDS011;51369;49.862;9.908;2023-03-01T04:33:15;24.85;;;12.68;;
64875;SDS011;51369;49.862;9.908;2023-03-01T04:35:41;29.98;;;13.95;;
64875;SDS011;51369;49.862;9.908;2023-03-01T04:38:07;22.70;;;12.60;;
64875;SDS011;51369;49.862;9.908;2023-03-01T04:40:33;27.33;;;15.00;;
64875;SDS011;51369;49.862;9.908;2023-03-01T04:42:59;31.77;;;14.82;;
64875;SDS011;51369;49.862;9.908;2023-03-01T04:45:24;31.58;;;14.20;;
64875;SDS011;51369;49.862;9.908;2023-03-01T04:47:50;35.60;;;15.05;;
64875;SDS011;51369;49.862;9.908;2023-03-01T04:50:17;28.42;;;14.20;;
64875;SDS011;51369;49.862;9.908;2023-03-01T04:52:45;22.83;;;12.95;;
64875;SDS011;51369;49.862;9.908;2023-03-01T04:55:12;27.08;;;13.52;;
64875;SDS011;51369;49.862;9.908;2023-03-01T04:57:38;28.20;;;14.38;;
64875;SDS011;51369;49.862;9.908;2023-03-01T05:00:05;26.27;;;12.75;;
64875;SDS011;51369;49.862;9.908;2023-03-01T05:07:46;28.60;;;14.18;;
64875;SDS011;51369;49.862;9.908;2023-03-01T05:10:12;28.48;;;14.02;;
64875;SDS011;51369;49.862;9.908;2023-03-01T05:12:37;24.58;;;12.20;;
64875;SDS011;51369;49.862;9.908;2023-03-01T05:15:03;27.30;;;14.18;;
64875;SDS011;51369;49.862;9.908;2023-03-01T05:17:32;24.90;;;12.95;;
64875;SDS011;51369;49.862;9.908;2023-03-01T05:19:59;27.48;;;12.73;;
64875;SDS011;51369;49.862;9.908;2023-03-01T05:22:25;28.45;;;13.98;;
64875;SDS011;51369;49.862;9.908;2023-03-01T05:24:50;29.20;;;14.63;;
64875;SDS011;51369;49.862;9.908;2023-03-01T05:27:16;29.13;;;14.88;;
64875;SDS011;51369;49.862;9.908;2023-03-01T05:29:41;24.58;;;11.30;;
64875;SDS011;51369;49.862;9.908;2023-03-01T05:32:06;26.45;;;13.57;;
64875;SDS011;51369;49.862;9.908;2023-03-01T05:34:34;25.70;;;14.77;;
64875;SDS011;51369;49.862;9.908;2023-03-01T05:37:01;28.02;;;13.73;;
64875;SDS011;51369;49.862;9.908;2023-03-01T05:39:28;30.02;;;14.68;;
64875;SDS011;51369;49.862;9.908;2023-03-01T05:41:55;32.05;;;13.98;;
64875;SDS011;51369;49.862;9.908;2023-03-01T05:44:22;28.52;;;13.98;;
64875;SDS011;51369;49.862;9.908;2023-03-01T05:46:49;32.53;;;14.65;;
64875;SDS011;51369;49.862;9.908;2023-03-01T05:49:14;30.52;;;14.88;;
64875;SDS011;51369;49.862;9.908;2023-03-01T05:51:40;27.80;;;14.55;;
64875;SDS011;51369;49.862;9.908;2023-03-01T05:54:06;29.85;;;14.40;;
64875;SDS011;51369;49.862;9.908;2023-03-01T05:56:33;30.00;;;14.18;;
64875;SDS011;51369;49.862;9.908;2023-03-01T05:58:59;29.55;;;14.25;;
64875;SDS011;51369;49.862;9.908;2023-03-01T06:01:25;23.50;;;12.93;;
64875;SDS011;51369;49.862;9.908;2023-03-01T06:03:50;29.85;;;13.73;;
64875;SDS011;51369;49.862;9.908;2023-03-01T06:06:16;27.23;;;14.50;;
64875;SDS011;51369;49.862;9.908;2023-03-01T06:08:41;29.95;;;14.82;;
64875;SDS011;51369;49.862;9.908;2023-03-01T06:11:07;29.58;;;14.60;;
64875;SDS011;51369;49.862;9.908;2023-03-01T06:13:32;26.58;;;13.93;;
64875;SDS011;51369;49.862;9.908;2023-03-01T06:15:58;30.75;;;15.20;;
64875;SDS011;51369;49.862;9.908;2023-03-01T06:18:23;30.05;;;15.18;;
64875;SDS011;51369;49.862;9.908;2023-03-01T06:20:52;26.55;;;13.15;;
64875;SDS011;51369;49.862;9.908;2023-03-01T06:23:19;25.60;;;12.07;;
64875;SDS011;51369;49.862;9.908;2023-03-01T06:25:44;32.03;;;15.10;;
64875;SDS011;51369;49.862;9.908;2023-03-01T06:28:09;26.20;;;13.68;;
64875;SDS011;51369;49.862;9.908;2023-03-01T06:30:35;29.45;;;14.27;;
64875;SDS011;51369;49.862;9.908;2023-03-01T06:33:00;29.15;;;13.82;;
64875;SDS011;51369;49.862;9.908;2023-03-01T06:35:26;29.80;;;14.38;;
64875;SDS011;51369;49.862;9.908;2023-03-01T06:37:54;26.10;;;14.25;;
64875;SDS011;51369;49.862;9.908;2023-03-01T06:40:20;28.77;;;14.07;;
64875;SDS011;51369;49.862;9.908;2023-03-01T06:42:47;29.52;;;15.05;;
64875;SDS011;51369;49.862;9.908;2023-03-01T06:45:16;29.13;;;14.30;;
64875;SDS011;51369;49.862;9.908;2023-03-01T06:47:43;30.13;;;14.75;;
64875;SDS011;51369;49.862;9.908;2023-03-01T06:50:09;30.70;;;15.40;;
64875;SDS011;51369;49.862;9.908;2023-03-01T06:52:35;29.88;;;15.32;;
64875;SDS011;51369;49.862;9.908;2023-03-01T06:55:00;26.63;;;14.60;;
64875;SDS011;51369;49.862;9.908;2023-03-01T06:57:26;28.58;;;15.10;;
64875;SDS011;51369;49.862;9.908;2023-03-01T06:59:52;30.50;;;14.07;;
64875;SDS011;51369;49.862;9.908;2023-03-01T07:02:18;26.58;;;14.45;;
64875;SDS011;51369;49.862;9.908;2023-03-01T07:04:43;28.77;;;14.82;;
64875;SDS011;51369;49.862;9.908;2023-03-01T07:07:09;26.88;;;14.73;;
64875;SDS011;51369;49.862;9.908;2023-03-01T07:09:34;30.27;;;14.85;;
64875;SDS011;51369;49.862;9.908;2023-03-01T07:12:00;29.80;;;15.27;;
64875;SDS011;51369;49.862;9.908;2023-03-01T07:14:26;32.08;;;14.88;;
64875;SDS011;51369;49.862;9.908;2023-03-01T07:16:55;29.23;;;15.45;;
64875;SDS011;51369;49.862;9.908;2023-03-01T07:19:20;27.02;;;14.32;;
64875;SDS011;51369;49.862;9.908;2023-03-01T07:21:46;25.05;;;12.15;;
64875;SDS011;51369;49.862;9.908;2023-03-01T07:24:12;32.40;;;15.90;;
64875;SDS011;51369;49.862;9.908;2023-03-01T07:26:37;32.50;;;15.90;;
64875;SDS011;51369;49.862;9.908;2023-03-01T07:29:03;30.67;;;16.23;;
64875;SDS011;51369;49.862;9.908;2023-03-01T07:31:30;29.30;;;14.45;;
64875;SDS011;51369;49.862;9.908;2023-03-01T07:33:56;28.08;;;15.82;;
64875;SDS011;51369;49.862;9.908;2023-03-01T07:36:21;32.35;;;16.45;;
64875;SDS011;51369;49.862;9.908;2023-03-01T07:38:47;32.38;;;15.27;;
64875;SDS011;51369;49.862;9.908;2023-03-01T07:41:12;31.35;;;15.77;;
64875;SDS011;51369;49.862;9.908;2023-03-01T07:43:38;29.27;;;15.10;;
64875;SDS011;51369;49.862;9.908;2023-03-01T07:46:04;35.05;;;14.98;;
64875;SDS011;51369;49.862;9.908;2023-03-01T07:48:30;30.98;;;15.70;;
64875;SDS011;51369;49.862;9.908;2023-03-01T07:50:59;31.08;;;14.77;;
64875;SDS011;51369;49.862;9.908;2023-03-01T07:53:26;33.00;;;16.40;;
64875;SDS011;51369;49.862;9.908;2023-03-01T07:56:04;35.10;;;14.70;;
64875;SDS011;51369;49.862;9.908;2023-03-01T07:58:34;29.65;;;14.55;;
64875;SDS011;51369;49.862;9.908;2023-03-01T08:01:04;28.40;;;15.40;;
64875;SDS011;51369;49.862;9.908;2023-03-01T08:03:31;31.65;;;15.68;;
64875;SDS011;51369;49.862;9.908;2023-03-01T08:05:58;41.53;;;15.00;;
64875;SDS011;51369;49.862;9.908;2023-03-01T08:08:25;30.15;;;14.32;;
64875;SDS011;51369;49.862;9.908;2023-03-01T08:10:50;28.27;;;13.48;;
64875;SDS011;51369;49.862;9.908;2023-03-01T08:13:16;28.65;;;15.70;;
64875;SDS011;51369;49.862;9.908;2023-03-01T08:15:41;30.75;;;16.10;;
64875;SDS011;51369;49.862;9.908;2023-03-01T08:18:07;30.08;;;15.27;;
64875;SDS011;51369;49.862;9.908;2023-03-01T08:20:32;33.60;;;15.85;;
64875;SDS011;51369;49.862;9.908;2023-03-01T08:22:58;38.53;;;17.55;;
64875;SDS011;51369;49.862;9.908;2023-03-01T08:25:23;32.85;;;17.02;;
64875;SDS011;51369;49.862;9.908;2023-03-01T08:27:49;32.42;;;15.65;;
64875;SDS011;51369;49.862;9.908;2023-03-01T08:30:14;41.00;;;19.33;;
64875;SDS011;51369;49.862;9.908;2023-03-01T08:32:40;36.22;;;17.98;;
64875;SDS011;51369;49.862;9.908;2023-03-01T08:35:05;30.52;;;15.73;;
64875;SDS011;51369;49.862;9.908;2023-03-01T08:37:31;31.40;;;16.23;;
64875;SDS011;51369;49.862;9.908;2023-03-01T08:39:58;37.25;;;16.38;;
64875;SDS011;51369;49.862;9.908;2023-03-01T08:42:24;36.72;;;17.23;;
64875;SDS011;51369;49.862;9.908;2023-03-01T08:44:50;32.85;;;15.70;;
64875;SDS011;51369;49.862;9.908;2023-03-01T08:47:16;30.80;;;16.35;;
64875;SDS011;51369;49.862;9.908;2023-03-01T08:49:41;32.33;;;17.25;;
64875;SDS011;51369;49.862;9.908;2023-03-01T08:52:07;31.83;;;15.50;;
64875;SDS011;51369;49.862;9.908;2023-03-01T08:54:33;41.70;;;17.58;;
64875;SDS011;51369;49.862;9.908;2023-03-01T08:57:00;32.72;;;15.70;;
64875;SDS011;51369;49.862;9.908;2023-03-01T08:59:26;32.45;;;16.02;;
64875;SDS011;51369;49.862;9.908;2023-03-01T09:01:52;30.08;;;16.33;;
64875;SDS011;51369;49.862;9.908;2023-03-01T09:04:18;31.67;;;15.95;;
64875;SDS011;51369;49.862;9.908;2023-03-01T09:06:43;34.20;;;15.68;;
64875;SDS011;51369;49.862;9.908;2023-03-01T09:09:15;30.85;;;16.45;;
64875;SDS011;51369;49.862;9.908;2023-03-01T09:11:42;33.22;;;17.10;;
64875;SDS011;51369;49.862;9.908;2023-03-01T09:14:11;34.65;;;16.75;;
64875;SDS011;51369;49.862;9.908;2023-03-01T09:16:37;32.55;;;15.80;;
64875;SDS011;51369;49.862;9.908;2023-03-01T09:19:03;32.30;;;17.20;;
64875;SDS011;51369;49.862;9.908;2023-03-01T09:21:28;30.35;;;15.80;;
64875;SDS011;51369;49.862;9.908;2023-03-01T09:23:55;32.13;;;17.25;;
64875;SDS011;51369;49.862;9.908;2023-03-01T09:26:21;30.45;;;16.17;;
64875;SDS011;51369;49.862;9.908;2023-03-01T09:28:49;38.70;;;17.38;;
64875;SDS011;51369;49.862;9.908;2023-03-01T09:31:16;31.85;;;16.92;;
64875;SDS011;51369;49.862;9.908;2023-03-01T09:33:44;31.05;;;17.77;;
64875;SDS011;51369;49.862;9.908;2023-03-01T09:36:12;32.03;;;18.00;;
64875;SDS011;51369;49.862;9.908;2023-03-01T09:38:42;32.90;;;17.47;;
64875;SDS011;51369;49.862;9.908;2023-03-01T09:41:19;33.30;;;15.98;;
64875;SDS011;51369;49.862;9.908;2023-03-01T09:44:10;31.65;;;16.50;;
64875;SDS011;51369;49.862;9.908;2023-03-01T09:46:45;30.25;;;16.80;;
64875;SDS011;51369;49.862;9.908;2023-03-01T09:49:12;36.03;;;16.73;;
64875;SDS011;51369;49.862;9.908;2023-03-01T09:51:42;31.00;;;15.93;;
64875;SDS011;51369;49.862;9.908;2023-03-01T09:54:12;30.38;;;16.65;;
64875;SDS011;51369;49.862;9.908;2023-03-01T09:56:44;28.58;;;15.63;;
64875;SDS011;51369;49.862;9.908;2023-03-01T09:59:30;32.67;;;16.95;;
64875;SDS011;51369;49.862;9.908;2023-03-01T10:04:49;47.45;;;17.67;;
64875;SDS011;51369;49.862;9.908;2023-03-01T10:07:39;25.73;;;15.07;;
64875;SDS011;51369;49.862;9.908;2023-03-01T10:12:40;34.60;;;17.17;;
64875;SDS011;51369;49.862;9.908;2023-03-01T10:15:11;29.08;;;15.75;;
64875;SDS011;51369;49.862;9.908;2023-03-01T10:17:50;40.03;;;17.20;;
64875;SDS011;51369;49.862;9.908;2023-03-01T10:20:21;32.30;;;17.90;;
64875;SDS011;51369;49.862;9.908;2023-03-01T10:22:50;35.30;;;16.05;;
64875;SDS011;51369;49.862;9.908;2023-03-01T10:25:30;35.00;;;16.35;;
64875;SDS011;51369;49.862;9.908;2023-03-01T10:28:17;27.40;;;15.43;;
64875;SDS011;51369;49.862;9.908;2023-03-01T10:30:50;33.40;;;18.02;;
64875;SDS011;51369;49.862;9.908;2023-03-01T10:33:20;30.63;;;17.60;;
64875;SDS011;51369;49.862;9.908;2023-03-01T10:35:49;31.70;;;17.55;;
64875;SDS011;51369;49.862;9.908;2023-03-01T10:38:15;32.42;;;16.98;;
64875;SDS011;51369;49.862;9.908;2023-03-01T10:43:22;31.73;;;17.45;;
64875;SDS011;51369;49.862;9.908;2023-03-01T10:45:49;31.92;;;16.88;;
64875;SDS011;51369;49.862;9.908;2023-03-01T10:48:25;28.33;;;15.60;;
64875;SDS011;51369;49.862;9.908;2023-03-01T10:53:26;30.30;;;16.15;;
64875;SDS011;51369;49.862;9.908;2023-03-01T10:58:31;33.03;;;16.80;;
64875;SDS011;51369;49.862;9.908;2023-03-01T11:01:41;28.30;;;15.18;;
64875;SDS011;51369;49.862;9.908;2023-03-01T11:06:31;34.30;;;15.68;;
64875;SDS011;51369;49.862;9.908;2023-03-01T11:08:57;30.85;;;17.10;;
64875;SDS011;51369;49.862;9.908;2023-03-01T11:14:24;31.85;;;16.75;;
64875;SDS011;51369;49.862;9.908;2023-03-01T11:16:58;28.08;;;15.95;;
64875;SDS011;51369;49.862;9.908;2023-03-01T11:19:24;31.45;;;16.73;;
64875;SDS011;51369;49.862;9.908;2023-03-01T11:21:55;28.23;;;16.30;;
64875;SDS011;51369;49.862;9.908;2023-03-01T11:27:17;27.48;;;16.05;;
64875;SDS011;51369;49.862;9.908;2023-03-01T11:29:50;29.52;;;16.15;;
64875;SDS011;51369;49.862;9.908;2023-03-01T11:32:20;26.83;;;15.98;;
64875;SDS011;51369;49.862;9.908;2023-03-01T11:37:39;25.83;;;15.55;;
64875;SDS011;51369;49.862;9.908;2023-03-01T11:50:59;27.15;;;15.68;;
64875;SDS011;51369;49.862;9.908;2023-03-01T11:59:03;25.17;;;15.73;;
64875;SDS011;51369;49.862;9.908;2023-03-01T12:04:45;28.70;;;14.90;;
64875;SDS011;51369;49.862;9.908;2023-03-01T12:32:52;32.30;;;16.52;;
64875;SDS011;51369;49.862;9.908;2023-03-01T12:44:15;28.92;;;16.38;;
64875;SDS011;51369;49.862;9.908;2023-03-01T12:47:07;24.67;;;15.30;;
64875;SDS011;51369;49.862;9.908;2023-03-01T12:49:45;27.45;;;15.65;;
64875;SDS011;51369;49.862;9.908;2023-03-01T12:52:16;33.38;;;16.88;;
64875;SDS011;51369;49.862;9.908;2023-03-01T13:17:50;27.00;;;15.93;;
64875;SDS011;51369;49.862;9.908;2023-03-01T13:20:18;25.40;;;15.18;;
64875;SDS011;51369;49.862;9.908;2023-03-01T13:22:46;25.52;;;15.02;;
64875;SDS011;51369;49.862;9.908;2023-03-01T13:27:45;28.80;;;15.60;;
64875;SDS011;51369;49.862;9.908;2023-03-01T13:30:57;26.90;;;15.68;;
64875;SDS011;51369;49.862;9.908;2023-03-01T13:33:33;29.90;;;16.02;;
64875;SDS011;51369;49.862;9.908;2023-03-01T13:35:55;26.10;;;15.88;;
64875;SDS011;51369;49.862;9.908;2023-03-01T13:44:21;22.80;;;14.43;;
64875;SDS011;51369;49.862;9.908;2023-03-01T13:49:47;37.72;;;15.63;;
64875;SDS011;51369;49.862;9.908;2023-03-01T13:52:24;27.35;;;15.57;;
64875;SDS011;51369;49.862;9.908;2023-03-01T13:55:00;39.75;;;15.48;;
64875;SDS011;51369;49.862;9.908;2023-03-01T13:57:35;24.48;;;15.15;;
64875;SDS011;51369;49.862;9.908;2023-03-01T14:00:04;26.98;;;13.63;;
64875;SDS011;51369;49.862;9.908;2023-03-01T14:02:30;23.25;;;14.68;;
64875;SDS011;51369;49.862;9.908;2023-03-01T14:04:59;24.92;;;14.85;;
64875;SDS011;51369;49.862;9.908;2023-03-01T14:07:26;26.08;;;15.45;;
64875;SDS011;51369;49.862;9.908;2023-03-01T14:10:00;21.98;;;14.43;;
64875;SDS011;51369;49.862;9.908;2023-03-01T14:12:38;22.00;;;14.18;;
64875;SDS011;51369;49.862;9.908;2023-03-01T14:15:29;22.95;;;14.00;;
64875;SDS011;51369;49.862;9.908;2023-03-01T14:20:37;26.33;;;14.20;;
64875;SDS011;51369;49.862;9.908;2023-03-01T14:23:09;32.55;;;14.20;;
64875;SDS011;51369;49.862;9.908;2023-03-01T14:25:47;22.98;;;13.77;;
64875;SDS011;51369;49.862;9.908;2023-03-01T14:28:19;26.35;;;13.93;;
64875;SDS011;51369;49.862;9.908;2023-03-01T14:30:52;23.13;;;14.30;;
64875;SDS011;51369;49.862;9.908;2023-03-01T14:35:53;26.35;;;14.85;;
64875;SDS011;51369;49.862;9.908;2023-03-01T14:38:27;22.88;;;13.48;;
64875;SDS011;51369;49.862;9.908;2023-03-01T14:40:57;23.85;;;13.85;;
64875;SDS011;51369;49.862;9.908;2023-03-01T14:43:26;24.17;;;14.48;;
64875;SDS011;51369;49.862;9.908;2023-03-01T14:45:52;22.67;;;13.95;;
64875;SDS011;51369;49.862;9.908;2023-03-01T14:48:17;21.65;;;13.40;;
64875;SDS011;51369;49.862;9.908;2023-03-01T14:50:43;21.80;;;13.80;;
64875;SDS011;51369;49.862;9.908;2023-03-01T14:53:26;25.90;;;14.50;;
64875;SDS011;51369;49.862;9.908;2023-03-01T14:55:55;19.77;;;13.02;;
64875;SDS011;51369;49.862;9.908;2023-03-01T14:58:25;24.02;;;13.60;;
64875;SDS011;51369;49.862;9.908;2023-03-01T15:00:52;29.77;;;14.55;;
64875;SDS011;51369;49.862;9.908;2023-03-01T15:03:42;19.80;;;13.15;;
64875;SDS011;51369;49.862;9.908;2023-03-01T15:06:11;20.15;;;13.02;;
64875;SDS011;51369;49.862;9.908;2023-03-01T15:08:50;20.48;;;12.40;;
64875;SDS011;51369;49.862;9.908;2023-03-01T15:13:50;21.35;;;12.88;;
64875;SDS011;51369;49.862;9.908;2023-03-01T15:16:22;25.35;;;13.00;;
64875;SDS011;51369;49.862;9.908;2023-03-01T15:18:52;19.40;;;13.05;;
64875;SDS011;51369;49.862;9.908;2023-03-01T15:21:24;32.13;;;14.50;;
64875;SDS011;51369;49.862;9.908;2023-03-01T15:23:58;22.60;;;12.73;;
64875;SDS011;51369;49.862;9.908;2023-03-01T15:26:30;21.73;;;13.48;;
64875;SDS011;51369;49.862;9.908;2023-03-01T15:29:05;23.92;;;13.23;;
64875;SDS011;51369;49.862;9.908;2023-03-01T15:31:41;23.52;;;13.30;;
64875;SDS011;51369;49.862;9.908;2023-03-01T15:34:19;23.40;;;12.43;;
64875;SDS011;51369;49.862;9.908;2023-03-01T15:36:48;21.92;;;13.85;;
64875;SDS011;51369;49.862;9.908;2023-03-01T15:39:32;19.13;;;12.35;;
64875;SDS011;51369;49.862;9.908;2023-03-01T15:44:36;19.80;;;12.25;;
64875;SDS011;51369;49.862;9.908;2023-03-01T15:47:08;17.42;;;11.50;;
64875;SDS011;51369;49.862;9.908;2023-03-01T15:49:48;21.75;;;12.55;;
64875;SDS011;51369;49.862;9.908;2023-03-01T15:52:27;18.80;;;12.20;;
64875;SDS011;51369;49.862;9.908;2023-03-01T15:54:58;20.35;;;12.68;;
64875;SDS011;51369;49.862;9.908;2023-03-01T15:57:26;29.25;;;15.02;;
64875;SDS011;51369;49.862;9.908;2023-03-01T15:59:51;24.85;;;13.77;;
64875;SDS011;51369;49.862;9.908;2023-03-01T16:02:17;23.02;;;13.18;;
64875;SDS011;51369;49.862;9.908;2023-03-01T16:04:45;21.27;;;13.23;;
64875;SDS011;51369;49.862;9.908;2023-03-01T16:07:12;25.33;;;13.85;;
64875;SDS011;51369;49.862;9.908;2023-03-01T16:09:37;22.50;;;13.68;;
64875;SDS011;51369;49.862;9.908;2023-03-01T16:12:03;19.25;;;12.63;;
64875;SDS011;51369;49.862;9.908;2023-03-01T16:14:28;21.85;;;13.23;;
64875;SDS011;51369;49.862;9.908;2023-03-01T16:16:54;22.35;;;13.82;;
64875;SDS011;51369;49.862;9.908;2023-03-01T16:19:19;21.55;;;13.27;;
64875;SDS011;51369;49.862;9.908;2023-03-01T16:21:45;24.40;;;13.75;;
64875;SDS011;51369;49.862;9.908;2023-03-01T16:24:12;28.20;;;14.38;;
64875;SDS011;51369;49.862;9.908;2023-03-01T16:26:37;19.35;;;12.90;;
64875;SDS011;51369;49.862;9.908;2023-03-01T16:29:03;20.65;;;13.18;;
64875;SDS011;51369;49.862;9.908;2023-03-01T16:31:29;23.75;;;12.98;;
64875;SDS011;51369;49.862;9.908;2023-03-01T16:33:54;28.30;;;14.88;;
64875;SDS011;51369;49.862;9.908;2023-03-01T16:36:23;24.88;;;14.73;;
64875;SDS011;51369;49.862;9.908;2023-03-01T16:38:50;23.42;;;14.25;;
64875;SDS011;51369;49.862;9.908;2023-03-01T16:41:17;23.40;;;13.80;;
64875;SDS011;51369;49.862;9.908;2023-03-01T16:43:45;26.40;;;14.15;;
64875;SDS011;51369;49.862;9.908;2023-03-01T16:46:15;23.92;;;13.27;;
64875;SDS011;51369;49.862;9.908;2023-03-01T16:48:45;25.60;;;13.77;;
64875;SDS011;51369;49.862;9.908;2023-03-01T16:51:11;22.20;;;13.52;;
64875;SDS011;51369;49.862;9.908;2023-03-01T16:53:37;20.08;;;13.80;;
64875;SDS011;51369;49.862;9.908;2023-03-01T16:56:04;22.00;;;13.68;;